createdAt,value
2022-11-30T00:01:24.685Z,10.83
2022-11-30T00:03:56.577Z,10.17
2022-11-30T00:06:24.889Z,9.63
2022-11-30T00:08:57.625Z,12.03
2022-11-30T00:11:28.524Z,9.53
2022-11-30T00:13:55.596Z,10.27
2022-11-30T00:16:22.694Z,10.43
2022-11-30T00:18:50.024Z,9.70
2022-11-30T00:21:20.693Z,10.17
2022-11-30T00:23:48.716Z,9.70
2022-11-30T00:26:19.093Z,11.17
2022-11-30T00:28:46.654Z,10.13
2022-11-30T00:31:16.765Z,10.70
2022-11-30T00:33:44.381Z,10.70
2022-11-30T00:36:19.001Z,11.53
2022-11-30T00:38:46.660Z,9.67
2022-11-30T00:41:14.871Z,11.17
2022-11-30T00:43:41.805Z,10.37
2022-11-30T00:46:09.404Z,11.43
2022-11-30T00:48:40.332Z,9.83
2022-11-30T00:51:10.014Z,10.30
2022-11-30T00:53:37.379Z,10.67
2022-11-30T00:56:04.847Z,9.77
2022-11-30T00:58:31.718Z,10.00
2022-11-30T01:00:58.952Z,11.37
2022-11-30T01:03:25.983Z,10.40
2022-11-30T01:05:52.869Z,10.23
2022-11-30T01:08:19.890Z,11.40
2022-11-30T01:10:49.441Z,9.13
2022-11-30T01:13:16.388Z,10.13
2022-11-30T01:15:44.326Z,9.83
2022-11-30T01:18:11.741Z,10.33
2022-11-30T01:20:44.513Z,10.70
2022-11-30T01:23:11.692Z,13.13
2022-11-30T01:25:39.883Z,11.33
2022-11-30T01:28:09.138Z,10.07
2022-11-30T01:30:36.121Z,10.70
2022-11-30T01:33:06.740Z,11.53
2022-11-30T01:35:33.526Z,10.40
2022-11-30T01:38:00.357Z,12.53
2022-11-30T01:40:27.389Z,10.73
2022-11-30T01:42:54.168Z,10.70
2022-11-30T01:45:21.029Z,10.83
2022-11-30T01:47:53.479Z,11.10
2022-11-30T01:50:35.026Z,10.37
2022-11-30T01:53:03.581Z,10.90
2022-11-30T01:55:39.577Z,12.73
2022-11-30T01:58:16.681Z,13.63
2022-11-30T02:00:47.798Z,13.60
2022-11-30T02:03:39.650Z,14.27
2022-11-30T02:06:08.228Z,14.63
2022-11-30T02:08:35.161Z,14.57
2022-11-30T02:11:07.826Z,14.30
2022-11-30T02:14:12.258Z,12.97
2022-11-30T02:16:59.760Z,12.70
2022-11-30T02:20:00.691Z,11.67
2022-11-30T02:23:20.904Z,13.10
2022-11-30T02:26:05.149Z,15.23
2022-11-30T02:29:14.116Z,14.20
2022-11-30T02:32:17.583Z,13.10
2022-11-30T02:34:47.747Z,12.43
2022-11-30T02:37:16.854Z,15.40
2022-11-30T02:39:44.263Z,12.03
2022-11-30T02:42:15.803Z,11.60
2022-11-30T02:44:52.213Z,15.03
2022-11-30T02:47:36.471Z,11.33
2022-11-30T02:50:17.312Z,11.77
2022-11-30T02:52:45.738Z,13.93
2022-11-30T02:55:18.366Z,11.33
2022-11-30T02:57:45.450Z,14.73
2022-11-30T03:00:14.681Z,13.10
2022-11-30T03:02:42.506Z,13.23
2022-11-30T03:05:10.174Z,12.43
2022-11-30T03:07:37.546Z,12.10
2022-11-30T03:10:06.630Z,14.47
2022-11-30T03:12:33.552Z,11.83
2022-11-30T03:15:00.422Z,12.70
2022-11-30T03:17:27.774Z,14.70
2022-11-30T03:19:54.695Z,13.37
2022-11-30T03:22:21.609Z,11.50
2022-11-30T03:24:56.141Z,12.90
2022-11-30T03:27:23.047Z,13.03
2022-11-30T03:29:49.890Z,11.80
2022-11-30T03:32:16.781Z,9.87
2022-11-30T03:34:43.570Z,11.77
2022-11-30T03:37:10.316Z,11.73
2022-11-30T03:39:37.172Z,10.37
2022-11-30T03:42:04.308Z,11.97
2022-11-30T03:44:31.069Z,11.40
2022-11-30T03:46:58.133Z,10.43
2022-11-30T03:49:29.152Z,12.33
2022-11-30T03:51:59.916Z,14.70
2022-11-30T03:54:34.709Z,13.00
2022-11-30T03:57:01.587Z,11.43
2022-11-30T03:59:28.338Z,12.77
2022-11-30T04:01:55.218Z,10.47
2022-11-30T04:04:21.955Z,11.57
2022-11-30T04:06:48.710Z,12.10
2022-11-30T04:09:15.407Z,10.13
2022-11-30T04:11:42.219Z,9.30
2022-11-30T04:14:09.976Z,11.00
2022-11-30T04:16:36.738Z,10.73
2022-11-30T04:19:03.535Z,10.00
2022-11-30T04:21:31.028Z,11.17
2022-11-30T04:23:57.938Z,12.80
2022-11-30T04:26:24.726Z,12.73
2022-11-30T04:28:51.529Z,12.73
2022-11-30T04:31:18.352Z,11.53
2022-11-30T04:33:45.176Z,9.70
2022-11-30T04:36:20.566Z,9.87
2022-11-30T04:38:48.085Z,11.03
2022-11-30T04:41:15.243Z,11.53
2022-11-30T04:43:42.008Z,12.60
2022-11-30T04:46:09.027Z,12.23
2022-11-30T04:48:35.831Z,10.13
2022-11-30T04:51:08.351Z,12.00
2022-11-30T04:53:37.701Z,14.47
2022-11-30T04:56:11.149Z,12.30
2022-11-30T04:58:39.297Z,13.10
2022-11-30T05:01:06.684Z,12.40
2022-11-30T05:03:33.484Z,12.70
2022-11-30T05:06:00.189Z,11.90
2022-11-30T05:08:26.984Z,12.53
2022-11-30T05:10:55.187Z,11.23
2022-11-30T05:13:24.101Z,12.03
2022-11-30T05:15:51.009Z,12.03
2022-11-30T05:18:17.836Z,12.37
2022-11-30T05:20:50.613Z,13.13
2022-11-30T05:23:18.325Z,12.93
2022-11-30T05:25:46.201Z,10.50
2022-11-30T05:28:13.878Z,10.83
2022-11-30T05:30:42.558Z,13.63
2022-11-30T05:33:09.557Z,14.13
2022-11-30T05:35:37.000Z,13.70
2022-11-30T05:38:04.625Z,16.67
2022-11-30T05:40:34.398Z,15.10
2022-11-30T05:43:03.418Z,14.37
2022-11-30T05:45:31.085Z,13.90
2022-11-30T05:47:57.917Z,15.90
2022-11-30T05:50:24.730Z,16.53
2022-11-30T05:52:56.444Z,20.63
2022-11-30T05:55:29.572Z,18.97
2022-11-30T05:57:56.458Z,19.60
2022-11-30T06:00:23.256Z,19.03
2022-11-30T06:02:57.332Z,18.97
2022-11-30T06:05:25.349Z,17.50
2022-11-30T06:07:52.190Z,18.90
2022-11-30T06:10:20.029Z,19.80
2022-11-30T06:12:48.498Z,19.23
2022-11-30T06:15:15.289Z,19.07
2022-11-30T06:17:42.078Z,21.77
2022-11-30T06:20:09.537Z,22.93
2022-11-30T06:22:36.349Z,18.93
2022-11-30T06:25:04.520Z,23.73
2022-11-30T06:27:31.990Z,19.70
2022-11-30T06:29:58.918Z,18.70
2022-11-30T06:32:25.717Z,19.27
2022-11-30T06:34:52.441Z,21.17
2022-11-30T06:37:19.249Z,16.70
2022-11-30T06:42:34.063Z,17.10
2022-11-30T06:45:00.822Z,17.33
2022-11-30T06:47:28.136Z,21.17
2022-11-30T06:49:55.003Z,19.83
2022-11-30T06:55:04.996Z,19.63
2022-11-30T06:57:39.827Z,16.50
2022-11-30T07:00:08.405Z,19.30
2022-11-30T07:02:36.135Z,23.57
2022-11-30T07:05:06.756Z,24.77
2022-11-30T07:07:34.154Z,21.50
2022-11-30T07:10:00.964Z,18.83
2022-11-30T07:12:27.816Z,27.70
2022-11-30T07:14:57.319Z,27.03
2022-11-30T07:17:24.132Z,23.20
2022-11-30T07:19:50.849Z,21.40
2022-11-30T07:25:21.579Z,24.83
2022-11-30T07:27:48.295Z,26.83
2022-11-30T07:30:15.296Z,21.93
2022-11-30T07:32:42.024Z,24.70
2022-11-30T07:35:08.937Z,29.80
2022-11-30T07:37:35.640Z,26.10
2022-11-30T07:40:02.559Z,31.13
2022-11-30T07:42:29.336Z,25.97
2022-11-30T07:44:58.890Z,24.60
2022-11-30T07:47:26.004Z,31.60
2022-11-30T07:49:52.696Z,30.77
2022-11-30T07:52:19.488Z,29.33
2022-11-30T07:54:46.876Z,32.50
2022-11-30T07:57:13.916Z,30.90
2022-11-30T07:59:40.629Z,30.00
2022-11-30T08:02:07.431Z,27.47
2022-11-30T08:04:34.245Z,31.33
2022-11-30T08:07:01.000Z,28.87
2022-11-30T08:09:28.237Z,29.77
2022-11-30T08:11:55.010Z,28.87
2022-11-30T08:14:21.735Z,28.37
2022-11-30T08:16:48.958Z,25.03
2022-11-30T08:19:16.905Z,28.63
2022-11-30T08:21:43.685Z,28.37
2022-11-30T08:24:13.585Z,23.67
2022-11-30T08:26:40.393Z,27.10
2022-11-30T08:29:07.129Z,25.03
2022-11-30T08:31:36.303Z,25.73
2022-11-30T08:34:12.858Z,28.13
2022-11-30T08:36:41.039Z,27.90
2022-11-30T08:39:10.736Z,28.23
2022-11-30T08:41:39.036Z,24.87
2022-11-30T08:44:06.273Z,24.30
2022-11-30T08:49:22.919Z,25.27
2022-11-30T08:54:42.276Z,29.23
2022-11-30T08:57:09.134Z,29.17
2022-11-30T08:59:36.062Z,30.90
2022-11-30T09:02:03.554Z,30.30
2022-11-30T09:04:30.984Z,30.87
2022-11-30T09:06:59.920Z,30.93
2022-11-30T09:12:08.716Z,27.83
2022-11-30T09:14:35.674Z,29.50
2022-11-30T09:17:02.590Z,29.87
2022-11-30T09:19:29.417Z,30.83
2022-11-30T09:21:56.195Z,26.00
2022-11-30T09:24:22.957Z,27.80
2022-11-30T09:26:49.889Z,30.90
2022-11-30T09:29:16.649Z,28.27
2022-11-30T09:31:43.480Z,30.20
2022-11-30T09:34:12.108Z,30.87
2022-11-30T09:36:39.148Z,27.63
2022-11-30T09:39:08.853Z,28.97
2022-11-30T09:41:55.094Z,24.27
2022-11-30T09:44:51.741Z,31.03
2022-11-30T09:47:57.397Z,26.63
2022-11-30T09:50:30.141Z,31.73
2022-11-30T09:53:03.780Z,26.37
2022-11-30T09:55:40.823Z,31.33
2022-11-30T09:58:16.602Z,29.93
2022-11-30T10:00:43.412Z,29.10
2022-11-30T10:03:13.211Z,32.83
2022-11-30T10:06:10.459Z,27.90
2022-11-30T10:09:01.320Z,25.40
2022-11-30T10:11:53.519Z,26.40
2022-11-30T10:14:40.969Z,27.70
2022-11-30T10:17:29.587Z,31.60
2022-11-30T10:20:15.128Z,26.53
2022-11-30T10:23:44.458Z,28.30
2022-11-30T10:26:29.472Z,34.20
2022-11-30T10:29:12.183Z,33.13
2022-11-30T10:31:42.036Z,28.13
2022-11-30T10:34:32.350Z,28.13
2022-11-30T10:37:25.105Z,27.60
2022-11-30T10:40:05.308Z,29.40
2022-11-30T10:42:51.023Z,28.70
2022-11-30T10:45:24.461Z,25.63
2022-11-30T10:48:12.270Z,23.93
2022-11-30T10:50:40.512Z,28.13
2022-11-30T10:53:11.194Z,25.03
2022-11-30T10:56:10.245Z,28.13
2022-11-30T10:58:44.557Z,29.27
2022-11-30T11:01:40.325Z,26.03
2022-11-30T11:04:17.037Z,26.03
2022-11-30T11:06:59.379Z,28.67
2022-11-30T11:09:51.288Z,25.47
2022-11-30T11:12:27.556Z,29.83
2022-11-30T11:15:39.506Z,27.33
2022-11-30T11:18:22.887Z,28.80
2022-11-30T11:21:11.656Z,26.57
2022-11-30T11:23:42.169Z,27.30
2022-11-30T11:26:23.692Z,26.30
2022-11-30T11:28:53.789Z,25.50
2022-11-30T11:31:37.482Z,24.53
2022-11-30T11:34:22.418Z,27.23
2022-11-30T11:37:18.636Z,23.23
2022-11-30T11:40:15.976Z,27.77
2022-11-30T11:42:51.337Z,25.70
2022-11-30T11:45:29.219Z,27.10
2022-11-30T11:48:29.200Z,23.03
2022-11-30T11:51:09.851Z,24.93
2022-11-30T11:53:58.938Z,24.30
2022-11-30T11:56:32.097Z,26.63
2022-11-30T11:59:32.156Z,21.53
2022-11-30T12:02:06.378Z,24.13
2022-11-30T12:04:40.817Z,23.93
2022-11-30T12:07:25.509Z,26.53
2022-11-30T12:13:26.254Z,26.80
2022-11-30T12:16:23.987Z,24.03
2022-11-30T12:19:12.735Z,26.20
2022-11-30T12:22:12.807Z,22.70
2022-11-30T12:25:12.821Z,20.63
2022-11-30T12:28:05.733Z,23.03
2022-11-30T12:30:53.371Z,18.17
2022-11-30T12:33:48.217Z,21.23
2022-11-30T12:36:42.442Z,24.77
2022-11-30T12:39:39.149Z,20.77
2022-11-30T12:42:56.619Z,20.63
2022-11-30T12:45:39.763Z,24.30
2022-11-30T12:48:41.837Z,21.80
2022-11-30T12:51:29.972Z,21.63
2022-11-30T12:54:24.415Z,21.73
2022-11-30T12:57:44.720Z,21.43
2022-11-30T13:00:21.558Z,20.60
2022-11-30T13:03:18.885Z,22.20
2022-11-30T13:05:54.523Z,24.47
2022-11-30T13:20:50.364Z,21.70
2022-11-30T13:23:22.853Z,26.30
2022-11-30T13:26:10.087Z,23.47
2022-11-30T13:28:43.045Z,25.40
2022-11-30T13:31:28.419Z,23.43
2022-11-30T13:33:55.201Z,19.83
2022-11-30T13:36:32.977Z,19.90
2022-11-30T13:39:14.455Z,21.57
2022-11-30T13:41:43.667Z,24.33
2022-11-30T13:44:37.283Z,19.50
2022-11-30T13:47:31.125Z,22.20
2022-11-30T13:50:05.536Z,22.83
2022-11-30T13:52:57.469Z,19.90
2022-11-30T13:55:50.249Z,25.00
2022-11-30T13:58:19.821Z,24.20
2022-11-30T14:01:22.198Z,22.10
2022-11-30T14:04:30.899Z,19.90
2022-11-30T14:07:01.779Z,19.30
2022-11-30T14:09:40.098Z,20.37
2022-11-30T14:12:31.585Z,21.43
2022-11-30T14:15:00.542Z,18.97
2022-11-30T14:17:35.337Z,20.53
2022-11-30T14:20:18.955Z,18.10
2022-11-30T14:22:46.586Z,19.50
2022-11-30T14:25:20.459Z,19.73
2022-11-30T14:27:55.260Z,20.30
2022-11-30T14:30:24.122Z,19.87
2022-11-30T14:33:21.142Z,19.80
2022-11-30T14:35:56.451Z,20.07
2022-11-30T14:38:30.839Z,18.67
2022-11-30T14:40:58.420Z,21.17
2022-11-30T14:43:26.095Z,18.00
2022-11-30T14:46:07.208Z,19.97
2022-11-30T14:48:35.855Z,19.27
2022-11-30T14:51:03.969Z,21.97
2022-11-30T14:54:06.661Z,17.73
2022-11-30T14:56:46.996Z,18.30
2022-11-30T14:59:32.567Z,21.37
2022-11-30T15:02:03.685Z,19.47
2022-11-30T15:04:31.755Z,20.43
2022-11-30T15:07:00.135Z,25.13
2022-11-30T15:09:32.418Z,18.43
2022-11-30T15:11:59.879Z,20.00
2022-11-30T15:14:26.686Z,24.60
2022-11-30T15:16:57.003Z,24.57
2022-11-30T15:19:29.028Z,22.10
2022-11-30T15:21:58.647Z,21.03
2022-11-30T15:24:29.347Z,20.80
2022-11-30T15:27:08.767Z,20.73
2022-11-30T15:29:58.302Z,22.27
2022-11-30T15:32:26.027Z,21.30
2022-11-30T15:35:00.712Z,24.57
2022-11-30T15:37:41.131Z,24.00
2022-11-30T15:40:10.724Z,20.37
2022-11-30T15:42:41.467Z,23.90
2022-11-30T15:45:26.016Z,23.33
2022-11-30T15:47:55.886Z,22.07
2022-11-30T15:50:28.729Z,21.03
2022-11-30T15:53:04.149Z,21.90
2022-11-30T15:55:49.844Z,22.93
2022-11-30T15:58:45.240Z,16.50
2022-11-30T16:01:24.134Z,17.87
2022-11-30T16:04:05.119Z,19.90
2022-11-30T16:06:37.137Z,18.60
2022-11-30T16:09:32.243Z,20.40
2022-11-30T16:12:01.733Z,22.13
2022-11-30T16:14:28.876Z,21.53
2022-11-30T16:16:55.881Z,21.30
2022-11-30T16:19:22.964Z,19.03
2022-11-30T16:21:50.343Z,23.17
2022-11-30T16:24:17.471Z,22.40
2022-11-30T16:26:52.462Z,21.53
2022-11-30T16:29:20.184Z,20.30
2022-11-30T16:31:47.083Z,22.93
2022-11-30T16:34:13.950Z,21.53
2022-11-30T16:36:40.880Z,22.30
2022-11-30T16:39:12.035Z,21.47
2022-11-30T16:41:38.961Z,21.63
2022-11-30T16:44:14.050Z,20.70
2022-11-30T16:46:40.818Z,21.17
2022-11-30T16:49:07.546Z,21.70
2022-11-30T16:51:35.984Z,22.77
2022-11-30T16:54:03.792Z,19.50
2022-11-30T16:56:30.752Z,21.53
2022-11-30T16:58:57.500Z,19.80
2022-11-30T17:01:35.892Z,22.37
2022-11-30T17:04:20.270Z,22.13
2022-11-30T17:06:50.623Z,22.70
2022-11-30T17:09:19.548Z,19.50
2022-11-30T17:11:52.365Z,21.07
2022-11-30T17:14:21.049Z,19.73
2022-11-30T17:16:48.111Z,19.77
2022-11-30T17:19:14.953Z,20.60
2022-11-30T17:21:44.544Z,19.47
2022-11-30T17:24:11.930Z,18.90
2022-11-30T17:26:38.889Z,22.07
2022-11-30T17:29:06.548Z,21.67
2022-11-30T17:31:40.790Z,22.57
2022-11-30T17:36:56.102Z,21.57
2022-11-30T17:39:27.919Z,20.43
2022-11-30T17:41:55.724Z,18.87
2022-11-30T17:44:22.482Z,19.80
2022-11-30T17:46:49.319Z,22.57
2022-11-30T17:49:16.489Z,24.47
2022-11-30T17:51:47.207Z,20.47
2022-11-30T17:54:18.403Z,20.63
2022-11-30T17:56:48.859Z,25.73
2022-11-30T17:59:19.409Z,21.87
2022-11-30T18:01:46.337Z,19.90
2022-11-30T18:04:13.655Z,25.57
2022-11-30T18:06:40.448Z,23.70
2022-11-30T18:09:07.369Z,25.70
2022-11-30T18:11:34.604Z,25.97
2022-11-30T18:14:03.821Z,25.53
2022-11-30T18:16:36.281Z,24.17
2022-11-30T18:19:12.244Z,24.63
2022-11-30T18:21:41.671Z,24.70
2022-11-30T18:24:10.212Z,23.87
2022-11-30T18:26:38.799Z,23.60
2022-11-30T18:29:06.579Z,23.53
2022-11-30T18:31:33.967Z,25.43
2022-11-30T18:34:05.396Z,24.50
2022-11-30T18:36:34.424Z,21.53
2022-11-30T18:39:01.277Z,20.13
2022-11-30T18:41:30.119Z,23.13
2022-11-30T18:43:58.087Z,21.07
2022-11-30T18:46:25.794Z,23.13
2022-11-30T18:48:54.423Z,27.87
2022-11-30T18:51:25.173Z,23.83
2022-11-30T18:54:07.898Z,21.63
2022-11-30T18:56:37.943Z,17.13
2022-11-30T18:59:13.006Z,22.57
2022-11-30T19:01:40.335Z,22.13
2022-11-30T19:04:10.301Z,22.47
2022-11-30T19:06:39.075Z,21.93
2022-11-30T19:09:09.867Z,21.33
2022-11-30T19:11:38.762Z,23.07
2022-11-30T19:14:06.804Z,21.70
2022-11-30T19:16:35.314Z,16.77
2022-11-30T19:19:32.712Z,22.73
2022-11-30T19:21:58.416Z,21.70
2022-11-30T19:24:25.671Z,19.20
2022-11-30T19:26:52.661Z,21.27
2022-11-30T19:29:19.987Z,20.07
2022-11-30T19:34:27.524Z,19.40
2022-11-30T19:36:54.526Z,22.33
2022-11-30T19:39:21.560Z,16.87
2022-11-30T19:41:48.282Z,21.43
2022-11-30T19:44:15.632Z,18.47
2022-11-30T19:46:42.645Z,21.97
2022-11-30T19:49:10.431Z,23.63
2022-11-30T19:51:37.237Z,20.00
2022-11-30T19:54:04.195Z,22.07
2022-11-30T19:56:34.486Z,18.50
2022-11-30T19:59:05.568Z,19.27
2022-11-30T20:01:34.983Z,19.80
2022-11-30T20:04:02.695Z,18.57
2022-11-30T20:06:37.014Z,18.63
2022-11-30T20:09:09.594Z,16.83
2022-11-30T20:11:37.109Z,18.43
2022-11-30T20:14:04.599Z,18.20
2022-11-30T20:16:31.579Z,19.90
2022-11-30T20:19:02.971Z,16.50
2022-11-30T20:21:33.340Z,16.90
2022-11-30T20:24:06.037Z,19.20
2022-11-30T20:26:39.766Z,17.57
2022-11-30T20:29:12.680Z,15.37
2022-11-30T20:31:40.924Z,18.10
2022-11-30T20:34:12.526Z,17.77
2022-11-30T20:36:43.653Z,18.77
2022-11-30T20:39:14.007Z,20.50
2022-11-30T20:41:48.981Z,18.63
2022-11-30T20:44:15.983Z,18.63
2022-11-30T20:46:42.939Z,16.03
2022-11-30T20:49:18.648Z,17.20
2022-11-30T20:51:48.804Z,16.97
2022-11-30T20:56:58.916Z,18.17
2022-11-30T20:59:29.514Z,17.53
2022-11-30T21:01:56.955Z,19.53
2022-11-30T21:04:26.897Z,18.67
2022-11-30T21:06:54.540Z,21.83
2022-11-30T21:09:21.325Z,18.37
2022-11-30T21:11:49.246Z,19.67
2022-11-30T21:14:17.679Z,20.30
2022-11-30T21:16:47.459Z,19.03
2022-11-30T21:19:15.384Z,22.10
2022-11-30T21:21:42.348Z,16.53
2022-11-30T21:24:11.559Z,17.13
2022-11-30T21:26:43.198Z,21.03
2022-11-30T21:29:16.533Z,17.83
2022-11-30T21:31:44.864Z,17.23
2022-11-30T21:34:12.181Z,18.47
2022-11-30T21:36:39.117Z,18.73
2022-11-30T21:39:07.478Z,15.67
2022-11-30T21:41:37.965Z,18.40
2022-11-30T21:44:06.811Z,16.10
2022-11-30T21:46:34.450Z,18.87
2022-11-30T21:49:01.733Z,18.93
2022-11-30T21:51:31.768Z,18.90
2022-11-30T21:54:05.576Z,20.97
2022-11-30T21:56:38.879Z,21.83
2022-11-30T22:01:49.822Z,18.40
2022-11-30T22:04:16.856Z,17.40
2022-11-30T22:06:44.123Z,23.07
2022-11-30T22:09:16.754Z,19.43
2022-11-30T22:11:46.174Z,16.27
2022-11-30T22:14:16.550Z,18.60
2022-11-30T22:16:47.509Z,16.90
2022-11-30T22:19:19.352Z,19.30
2022-11-30T22:21:50.613Z,20.27
2022-11-30T22:24:21.439Z,16.63
2022-11-30T22:26:52.892Z,17.80
2022-11-30T22:29:22.917Z,17.50
2022-11-30T22:31:53.040Z,19.67
2022-11-30T22:34:21.240Z,20.13
2022-11-30T22:36:48.598Z,22.97
2022-11-30T22:39:21.257Z,19.50
2022-11-30T22:41:55.049Z,16.77
2022-11-30T22:44:24.036Z,17.40
2022-11-30T22:46:50.967Z,17.80
2022-11-30T22:49:21.472Z,22.43
2022-11-30T22:51:49.947Z,21.77
2022-11-30T22:54:17.210Z,20.13
2022-11-30T22:56:46.112Z,17.27
2022-11-30T22:59:14.096Z,22.80
2022-11-30T23:01:49.384Z,18.53
2022-11-30T23:04:19.894Z,19.90
2022-11-30T23:06:48.768Z,20.73
2022-11-30T23:09:22.763Z,18.80
2022-11-30T23:11:50.925Z,17.83
2022-11-30T23:14:18.870Z,18.47
2022-11-30T23:16:46.432Z,17.57
2022-11-30T23:19:14.343Z,18.30
2022-11-30T23:21:44.792Z,17.87
2022-11-30T23:24:17.887Z,18.27
2022-11-30T23:26:44.811Z,20.73
2022-11-30T23:29:14.293Z,17.33
2022-11-30T23:31:42.953Z,21.23
2022-11-30T23:34:14.203Z,21.10
2022-11-30T23:36:51.007Z,25.40
2022-11-30T23:39:19.627Z,19.40
2022-11-30T23:41:46.932Z,19.83
2022-11-30T23:44:14.150Z,22.20
2022-11-30T23:46:41.067Z,20.37
2022-11-30T23:49:08.183Z,25.00
2022-11-30T23:51:35.487Z,22.43
2022-11-30T23:54:02.333Z,22.93
2022-11-30T23:56:29.155Z,24.27
2022-11-30T23:58:55.952Z,23.27
